Time;durP1;ratioP1;P1;durP2;ratioP2;P2;SDS_P1;SDS_P2;PMS_P1;PMS_P2;Temp;Humidity;BMP_temperature;BMP_pressure;BME280_temperature;BME280_humidity;BME280_pressure;Samples;Min_cycle;Max_cycle;Signal;HPM_P1;HPM_P2
2024/02/01 00:00:48;;;;;;;10.07;5.80;;;9.10;99.90;;;;;;5040864;28;20217;-64
2024/02/01 00:03:17;;;;;;;12.60;5.77;;;9.10;99.90;;;;;;5042715;28;20236;-65
2024/02/01 00:05:45;;;;;;;8.47;5.60;;;9.10;99.90;;;;;;5045637;28;20228;-65
2024/02/01 00:08:14;;;;;;;10.70;5.70;;;9.10;99.90;;;;;;5044687;28;20287;-64
2024/02/01 00:10:42;;;;;;;10.83;6.37;;;9.10;99.90;;;;;;5044287;28;20300;-65
2024/02/01 00:13:12;;;;;;;10.20;6.03;;;9.00;99.90;;;;;;5047359;28;20711;-65
2024/02/01 00:15:40;;;;;;;11.23;5.97;;;9.00;99.90;;;;;;5044507;28;20224;-64
2024/02/01 00:18:09;;;;;;;9.90;6.13;;;9.00;99.90;;;;;;5043019;28;20654;-64
2024/02/01 00:20:38;;;;;;;12.00;6.70;;;9.00;99.90;;;;;;5041692;28;20229;-64
2024/02/01 00:23:06;;;;;;;9.97;6.27;;;8.90;99.90;;;;;;5046716;28;20208;-65
2024/02/01 00:25:35;;;;;;;14.20;7.13;;;8.90;99.90;;;;;;5044292;28;20225;-64
2024/02/01 00:28:05;;;;;;;13.37;7.07;;;8.90;99.90;;;;;;5045478;28;20231;-64
2024/02/01 00:30:37;;;;;;;12.50;6.47;;;8.90;99.90;;;;;;5044201;28;20534;-64
2024/02/01 00:33:05;;;;;;;11.80;6.90;;;8.90;99.90;;;;;;5041031;28;20221;-64
2024/02/01 00:35:34;;;;;;;14.17;7.60;;;8.90;99.90;;;;;;5044048;28;20212;-64
2024/02/01 00:38:02;;;;;;;15.10;7.17;;;8.90;99.90;;;;;;5043477;28;20288;-64
2024/02/01 00:40:30;;;;;;;14.60;7.90;;;8.80;99.90;;;;;;5038652;28;20220;-64
2024/02/01 00:42:59;;;;;;;10.90;8.30;;;8.80;99.90;;;;;;5040855;28;20308;-64
2024/02/01 00:45:27;;;;;;;16.07;7.67;;;8.80;99.90;;;;;;5048799;28;20224;-65
2024/02/01 00:47:56;;;;;;;13.70;7.87;;;8.80;99.90;;;;;;5049357;28;20225;-64
2024/02/01 00:50:25;;;;;;;24.17;8.57;;;8.90;99.90;;;;;;5042655;28;20193;-65
2024/02/01 00:52:53;;;;;;;18.80;8.80;;;8.80;99.90;;;;;;5047682;28;20209;-64
2024/02/01 00:55:21;;;;;;;14.20;8.27;;;8.80;99.90;;;;;;5042933;28;20212;-64
2024/02/01 00:57:49;;;;;;;15.47;8.27;;;8.80;99.90;;;;;;5039764;28;20221;-63
2024/02/01 01:00:18;;;;;;;17.67;8.80;;;8.80;99.90;;;;;;5041032;28;20231;-64
2024/02/01 01:02:46;;;;;;;18.10;9.40;;;8.80;99.90;;;;;;5048191;28;20212;-63
2024/02/01 01:05:16;;;;;;;15.40;9.13;;;8.80;99.90;;;;;;5043997;28;20285;-63
2024/02/01 01:07:44;;;;;;;17.90;9.23;;;8.80;99.90;;;;;;5044407;28;20200;-63
2024/02/01 01:10:13;;;;;;;19.67;9.67;;;8.80;99.90;;;;;;5046615;28;20236;-63
2024/02/01 01:12:41;;;;;;;23.60;10.37;;;8.80;99.90;;;;;;5045317;28;20217;-64
2024/02/01 01:15:10;;;;;;;24.43;9.93;;;8.80;99.90;;;;;;5045552;28;20217;-63
2024/02/01 01:17:39;;;;;;;19.20;10.20;;;8.80;99.90;;;;;;5043834;28;20221;-63
2024/02/01 01:20:08;;;;;;;17.77;9.90;;;8.80;99.90;;;;;;5043110;28;20650;-63
2024/02/01 01:22:41;;;;;;;23.27;10.40;;;8.80;99.90;;;;;;5043090;28;20706;-63
2024/02/01 01:25:09;;;;;;;16.77;10.50;;;8.80;99.90;;;;;;5045685;28;20246;-63
2024/02/01 01:27:38;;;;;;;21.07;9.93;;;8.80;99.90;;;;;;5045267;28;20224;-63
2024/02/01 01:30:07;;;;;;;22.30;11.10;;;8.80;99.90;;;;;;5043458;28;20228;-63
2024/02/01 01:32:36;;;;;;;18.93;10.33;;;8.90;99.90;;;;;;5043122;28;20291;-63
2024/02/01 01:35:04;;;;;;;18.10;10.20;;;8.90;99.90;;;;;;5042333;28;20190;-64
2024/02/01 01:37:32;;;;;;;23.27;11.03;;;8.90;99.90;;;;;;5045409;28;20221;-63
2024/02/01 01:40:05;;;;;;;22.00;10.77;;;8.90;99.90;;;;;;5040874;28;20316;-63
2024/02/01 01:42:33;;;;;;;20.40;10.77;;;8.90;99.90;;;;;;5042815;28;20215;-63
2024/02/01 01:45:01;;;;;;;17.07;10.60;;;9.00;99.90;;;;;;5039318;28;20228;-64
2024/02/01 01:47:30;;;;;;;16.27;10.40;;;9.00;99.90;;;;;;5042980;28;20224;-63
2024/02/01 01:49:59;;;;;;;18.10;10.50;;;9.00;99.90;;;;;;5045397;28;20186;-63
2024/02/01 01:52:29;;;;;;;19.20;11.07;;;9.00;99.90;;;;;;5044442;28;20563;-63
2024/02/01 01:54:58;;;;;;;23.73;11.03;;;9.00;99.90;;;;;;5042028;28;20235;-63
2024/02/01 01:57:28;;;;;;;22.10;11.00;;;9.00;99.90;;;;;;5042712;28;20237;-62
2024/02/01 01:59:57;;;;;;;19.37;10.63;;;9.10;99.90;;;;;;5042047;28;20212;-63
2024/02/01 02:02:27;;;;;;;21.33;10.63;;;9.10;99.90;;;;;;5044992;28;20192;-63
2024/02/01 02:04:55;;;;;;;19.73;11.00;;;9.10;99.90;;;;;;5046257;28;20184;-63
2024/02/01 02:07:24;;;;;;;19.87;10.90;;;9.20;99.90;;;;;;5046850;28;20222;-63
2024/02/01 02:09:52;;;;;;;24.30;11.60;;;9.20;99.90;;;;;;5044974;28;20541;-63
2024/02/01 02:12:20;;;;;;;21.07;10.70;;;9.20;99.90;;;;;;5042214;28;20224;-63
2024/02/01 02:14:57;;;;;;;18.13;9.70;;;9.30;99.90;;;;;;5042425;28;20212;-63
2024/02/01 02:17:26;;;;;;;21.47;10.23;;;9.30;99.90;;;;;;5045907;28;20251;-63
2024/02/01 02:19:55;;;;;;;18.20;10.30;;;9.40;99.90;;;;;;5041528;28;20288;-63
2024/02/01 02:22:26;;;;;;;19.70;10.00;;;9.40;99.90;;;;;;5039785;28;20232;-63
2024/02/01 02:24:55;;;;;;;25.23;10.10;;;9.40;99.90;;;;;;5043061;28;20224;-63
2024/02/01 02:27:23;;;;;;;21.13;9.57;;;9.40;99.90;;;;;;5042391;28;20227;-63
2024/02/01 02:29:51;;;;;;;23.27;10.10;;;9.40;99.90;;;;;;5037527;28;20221;-62
2024/02/01 02:32:19;;;;;;;22.47;10.07;;;9.50;99.90;;;;;;5042795;28;20232;-63
2024/02/01 02:34:47;;;;;;;15.87;9.07;;;9.50;99.90;;;;;;5041910;28;20209;-63
2024/02/01 02:37:16;;;;;;;16.07;9.53;;;9.50;99.90;;;;;;5039510;28;20282;-63
2024/02/01 02:39:45;;;;;;;21.20;9.23;;;9.50;99.90;;;;;;5045023;28;20235;-63
2024/02/01 02:42:13;;;;;;;18.70;9.30;;;9.50;99.90;;;;;;5042155;28;20888;-63
2024/02/01 02:44:42;;;;;;;20.23;8.30;;;9.50;99.90;;;;;;5042328;28;20248;-63
2024/02/01 02:47:11;;;;;;;17.00;9.43;;;9.60;99.90;;;;;;5042428;28;20221;-63
2024/02/01 02:49:39;;;;;;;15.40;8.70;;;9.60;99.90;;;;;;5040520;28;20204;-63
2024/02/01 02:52:07;;;;;;;17.23;8.70;;;9.60;99.90;;;;;;5040662;28;20315;-63
2024/02/01 02:54:35;;;;;;;13.03;8.43;;;9.60;99.90;;;;;;5041220;28;20220;-63
2024/02/01 02:57:06;;;;;;;16.07;9.03;;;9.60;99.90;;;;;;5043431;28;20221;-63
2024/02/01 02:59:38;;;;;;;14.30;9.03;;;9.60;99.90;;;;;;5042351;28;20232;-63
2024/02/01 03:02:06;;;;;;;14.10;8.93;;;9.60;99.90;;;;;;5039109;28;20240;-63
2024/02/01 03:04:35;;;;;;;17.53;9.80;;;9.60;99.90;;;;;;5042152;28;20707;-63
2024/02/01 03:07:08;;;;;;;13.90;8.93;;;9.60;99.90;;;;;;5041965;28;21703;-63
2024/02/01 03:09:36;;;;;;;18.87;9.70;;;9.60;99.90;;;;;;5037115;28;20231;-63
2024/02/01 03:12:07;;;;;;;15.20;9.43;;;9.60;99.90;;;;;;5040325;28;20599;-63
2024/02/01 03:14:38;;;;;;;18.07;9.80;;;9.60;99.90;;;;;;5040108;28;20268;-63
2024/02/01 03:17:07;;;;;;;18.83;10.20;;;9.60;99.90;;;;;;5042723;28;20321;-63
2024/02/01 03:19:36;;;;;;;19.27;11.53;;;9.60;99.90;;;;;;5040556;28;20275;-63
2024/02/01 03:22:05;;;;;;;21.00;10.33;;;9.60;99.90;;;;;;5042006;28;20307;-63
2024/02/01 03:24:34;;;;;;;23.30;11.03;;;9.60;99.90;;;;;;5036845;28;20231;-63
2024/02/01 03:27:11;;;;;;;20.00;11.33;;;9.60;99.90;;;;;;5047198;28;20218;-63
2024/02/01 03:29:42;;;;;;;24.63;12.07;;;9.60;99.90;;;;;;5041970;28;20583;-63
2024/02/01 03:32:10;;;;;;;20.97;12.07;;;9.70;99.90;;;;;;5039260;28;20594;-63
2024/02/01 03:34:41;;;;;;;27.00;12.40;;;9.70;99.90;;;;;;5037692;28;20228;-63
2024/02/01 03:37:14;;;;;;;22.13;12.00;;;9.60;99.90;;;;;;5045435;28;21300;-63
2024/02/01 03:39:42;;;;;;;25.70;13.33;;;9.60;99.90;;;;;;5043259;28;20308;-63
2024/02/01 03:42:12;;;;;;;30.87;13.43;;;9.70;99.90;;;;;;5046090;28;20220;-63
2024/02/01 03:44:42;;;;;;;31.97;14.10;;;9.70;99.90;;;;;;5050054;28;20247;-63
2024/02/01 03:47:10;;;;;;;28.30;14.20;;;9.70;99.90;;;;;;5043780;28;20262;-63
2024/02/01 03:49:39;;;;;;;34.67;14.17;;;9.70;99.90;;;;;;5047120;28;20204;-63
2024/02/01 03:52:08;;;;;;;26.40;14.20;;;9.70;99.90;;;;;;5046697;28;20217;-63
2024/02/01 03:54:37;;;;;;;30.87;14.87;;;9.70;99.90;;;;;;5044200;28;20604;-63
2024/02/01 03:57:06;;;;;;;30.53;14.07;;;9.70;99.90;;;;;;5046788;28;20710;-63
2024/02/01 03:59:35;;;;;;;35.23;14.30;;;9.70;99.90;;;;;;5045601;28;20244;-63
2024/02/01 04:02:05;;;;;;;31.90;14.20;;;9.70;99.90;;;;;;5048275;28;20185;-63
2024/02/01 04:04:33;;;;;;;33.73;14.47;;;9.70;99.90;;;;;;5046969;28;20223;-63
2024/02/01 04:07:02;;;;;;;35.50;14.87;;;9.60;99.90;;;;;;5045646;28;20300;-63
2024/02/01 04:09:30;;;;;;;35.27;14.47;;;9.60;99.90;;;;;;5043084;28;20267;-63
2024/02/01 04:11:58;;;;;;;40.10;14.40;;;9.60;99.90;;;;;;5048773;28;20223;-63
2024/02/01 04:14:27;;;;;;;43.63;14.53;;;9.70;99.90;;;;;;5048029;28;20201;-63
2024/02/01 04:16:55;;;;;;;35.57;14.73;;;9.70;99.90;;;;;;5046229;28;20552;-63
2024/02/01 04:19:25;;;;;;;43.60;14.20;;;9.70;99.90;;;;;;5043091;28;20216;-63
2024/02/01 04:21:53;;;;;;;51.10;15.73;;;9.60;99.90;;;;;;5046627;28;20217;-63
2024/02/01 04:24:24;;;;;;;39.93;14.00;;;9.70;99.90;;;;;;5038958;28;20234;-63
2024/02/01 04:26:52;;;;;;;47.10;14.27;;;9.70;99.90;;;;;;5042936;28;20700;-63
2024/02/01 04:29:22;;;;;;;41.23;14.17;;;9.60;99.90;;;;;;5047628;28;20238;-63
2024/02/01 04:31:50;;;;;;;41.07;14.80;;;9.60;99.90;;;;;;5043050;28;20232;-63
2024/02/01 04:34:18;;;;;;;35.03;13.97;;;9.70;99.90;;;;;;5044874;28;20560;-63
2024/02/01 04:36:48;;;;;;;37.97;13.43;;;9.70;99.90;;;;;;5045526;28;20221;-63
2024/02/01 04:39:17;;;;;;;41.90;14.80;;;9.70;99.90;;;;;;5045834;28;20724;-63
2024/02/01 04:41:45;;;;;;;41.90;13.93;;;9.70;99.90;;;;;;5043474;28;20240;-63
2024/02/01 04:44:14;;;;;;;43.00;14.30;;;9.60;99.90;;;;;;5041450;28;20280;-63
2024/02/01 04:46:42;;;;;;;46.80;14.30;;;9.60;99.90;;;;;;5045494;28;20283;-63
2024/02/01 04:49:12;;;;;;;45.50;14.63;;;9.60;99.90;;;;;;5043818;28;20248;-63
2024/02/01 04:51:42;;;;;;;50.53;14.40;;;9.60;99.90;;;;;;5042953;28;20239;-63
2024/02/01 04:54:12;;;;;;;37.40;13.97;;;9.60;99.90;;;;;;5044882;28;20231;-63
2024/02/01 04:56:42;;;;;;;42.93;13.87;;;9.60;99.90;;;;;;5043387;28;20220;-63
2024/02/01 04:59:11;;;;;;;39.30;11.80;;;9.60;99.90;;;;;;5044186;28;20182;-63
2024/02/01 05:01:40;;;;;;;22.80;8.30;;;9.50;99.90;;;;;;5039255;28;20201;-63
2024/02/01 05:04:13;;;;;;;24.43;7.20;;;9.30;99.90;;;;;;5044859;28;20266;-63
2024/02/01 05:06:42;;;;;;;25.17;6.50;;;9.10;99.90;;;;;;5043405;28;20278;-63
2024/02/01 05:09:25;;;;;;;23.50;5.80;;;8.90;99.90;;;;;;5042393;28;20224;-63
2024/02/01 05:11:54;;;;;;;20.90;4.70;;;8.80;99.90;;;;;;5040923;28;20216;-63
2024/02/01 05:14:23;;;;;;;15.43;4.33;;;8.60;99.90;;;;;;5043456;28;20583;-64
2024/02/01 05:16:51;;;;;;;15.80;4.13;;;8.40;99.90;;;;;;5047028;28;20300;-63
2024/02/01 05:19:21;;;;;;;14.30;4.03;;;8.30;99.90;;;;;;5047987;28;20228;-63
2024/02/01 05:21:52;;;;;;;17.07;3.80;;;8.20;99.90;;;;;;5043083;28;20223;-64
2024/02/01 05:24:23;;;;;;;21.00;4.47;;;8.20;99.90;;;;;;5045210;28;20216;-63
2024/02/01 05:26:52;;;;;;;16.63;3.77;;;8.20;99.90;;;;;;5044436;28;20220;-63
2024/02/01 05:29:22;;;;;;;19.57;4.23;;;8.20;99.90;;;;;;5046345;28;20201;-64
2024/02/01 05:31:51;;;;;;;18.47;4.13;;;8.20;99.90;;;;;;5039458;28;20584;-64
2024/02/01 05:34:20;;;;;;;16.07;3.90;;;8.10;99.90;;;;;;5040462;28;20571;-63
2024/02/01 05:36:51;;;;;;;18.80;4.20;;;8.10;99.90;;;;;;5045618;28;20560;-64
2024/02/01 05:39:28;;;;;;;13.87;3.50;;;8.00;99.90;;;;;;5046797;28;20695;-64
2024/02/01 05:41:57;;;;;;;14.30;3.30;;;8.00;99.90;;;;;;5043145;28;20224;-64
2024/02/01 05:44:27;;;;;;;14.10;3.83;;;8.00;99.90;;;;;;5040898;28;20284;-64
2024/02/01 05:46:56;;;;;;;13.60;3.50;;;7.90;99.90;;;;;;5047864;28;20197;-63
2024/02/01 05:49:26;;;;;;;20.17;4.20;;;7.90;99.90;;;;;;5040559;28;20561;-64
2024/02/01 05:52:00;;;;;;;30.57;4.47;;;7.80;99.90;;;;;;5044274;28;20705;-63
2024/02/01 05:54:29;;;;;;;18.37;3.90;;;7.70;99.90;;;;;;5041288;28;20251;-64
2024/02/01 05:56:58;;;;;;;17.80;4.40;;;7.60;99.90;;;;;;5043117;28;20224;-64
2024/02/01 05:59:26;;;;;;;14.60;3.70;;;7.50;99.90;;;;;;5036998;28;20204;-64
2024/02/01 06:01:54;;;;;;;23.30;3.80;;;7.50;99.90;;;;;;5044867;28;20250;-63
2024/02/01 06:04:23;;;;;;;13.77;3.67;;;7.50;99.90;;;;;;5041122;28;20789;-64
2024/02/01 06:06:52;;;;;;;21.00;4.43;;;7.40;99.90;;;;;;5044122;28;20707;-64
2024/02/01 06:09:21;;;;;;;21.03;6.27;;;7.40;99.90;;;;;;5044705;28;20227;-63
2024/02/01 06:11:51;;;;;;;17.97;5.97;;;7.40;99.90;;;;;;5039600;28;20263;-63
2024/02/01 06:14:19;;;;;;;13.93;4.70;;;7.40;99.90;;;;;;5044534;28;20196;-64
2024/02/01 06:16:47;;;;;;;15.30;3.90;;;7.30;99.90;;;;;;5046552;28;20188;-64
2024/02/01 06:19:15;;;;;;;19.07;4.30;;;7.30;99.90;;;;;;5043169;28;20225;-64
2024/02/01 06:21:44;;;;;;;16.83;3.97;;;7.30;99.90;;;;;;5044949;28;20269;-63
2024/02/01 06:24:12;;;;;;;11.47;3.30;;;7.30;99.90;;;;;;5038983;28;20224;-64
2024/02/01 06:26:41;;;;;;;17.73;3.67;;;7.30;99.90;;;;;;5042120;28;20247;-64
2024/02/01 06:29:11;;;;;;;12.03;3.50;;;7.30;99.90;;;;;;5042688;28;20201;-63
2024/02/01 06:31:40;;;;;;;9.33;3.60;;;7.30;99.90;;;;;;5043953;28;20683;-64
2024/02/01 06:34:11;;;;;;;12.30;3.77;;;7.30;99.90;;;;;;5041012;28;20248;-64
2024/02/01 06:36:41;;;;;;;12.37;3.33;;;7.30;99.90;;;;;;5042632;28;20643;-64
2024/02/01 06:39:37;;;;;;;12.47;3.33;;;7.30;99.90;;;;;;5041182;28;20247;-64
2024/02/01 06:42:14;;;;;;;11.70;2.67;;;7.30;99.90;;;;;;5040492;28;20220;-63
2024/02/01 06:44:46;;;;;;;12.90;3.00;;;7.20;99.90;;;;;;5043060;28;20254;-63
2024/02/01 06:47:23;;;;;;;13.27;3.30;;;7.20;99.90;;;;;;5045349;28;20254;-63
2024/02/01 06:50:03;;;;;;;15.40;3.27;;;7.20;99.90;;;;;;5041030;28;20200;-64
2024/02/01 06:52:40;;;;;;;12.40;3.50;;;7.20;99.90;;;;;;5041600;28;20256;-64
2024/02/01 06:58:16;;;;;;;9.70;3.13;;;6.90;99.90;;;;;;4999664;28;20755;-64
2024/02/01 07:01:03;;;;;;;21.73;3.87;;;6.80;99.90;;;;;;4984176;28;20222;-64
2024/02/01 07:03:51;;;;;;;17.20;3.50;;;6.70;99.90;;;;;;5016637;28;20228;-64
2024/02/01 07:06:27;;;;;;;13.17;3.60;;;6.60;99.90;;;;;;5043114;28;20560;-64
2024/02/01 07:09:16;;;;;;;12.00;3.77;;;6.40;99.90;;;;;;5041257;28;20228;-64
2024/02/01 07:11:58;;;;;;;16.77;3.60;;;6.30;99.90;;;;;;5036817;28;20225;-64
2024/02/01 07:14:36;;;;;;;15.43;3.67;;;6.20;99.90;;;;;;5043257;28;20236;-64
2024/02/01 07:19:56;;;;;;;14.97;4.00;;;6.00;99.90;;;;;;5042397;28;20299;-64
2024/02/01 07:22:40;;;;;;;13.50;3.57;;;5.90;99.90;;;;;;5040900;28;20331;-64
2024/02/01 07:25:33;;;;;;;15.10;3.37;;;5.80;99.90;;;;;;5037558;28;20216;-63
2024/02/01 07:58:29;;;;;;;34.17;9.03;;;5.40;99.90;;;;;;5040414;28;20227;-64
2024/02/01 08:00:57;;;;;;;30.80;8.07;;;5.40;99.90;;;;;;5041696;28;20558;-64
2024/02/01 08:03:55;;;;;;;36.23;9.27;;;5.40;99.90;;;;;;5038363;28;20221;-64
2024/02/01 08:09:13;;;;;;;67.43;15.93;;;5.40;99.90;;;;;;5040401;28;20691;-64
2024/02/01 08:11:45;;;;;;;51.23;12.33;;;5.40;99.90;;;;;;5040276;28;20308;-64
2024/02/01 08:14:14;;;;;;;50.20;10.97;;;5.50;99.90;;;;;;5043434;28;20193;-63
2024/02/01 08:16:44;;;;;;;66.77;15.73;;;5.50;99.90;;;;;;5039906;28;20304;-64
2024/02/01 08:19:12;;;;;;;66.60;17.97;;;5.50;99.90;;;;;;5033344;28;20228;-64
2024/02/01 08:21:54;;;;;;;52.00;17.27;;;5.50;99.90;;;;;;5040605;28;20266;-64
2024/02/01 08:24:23;;;;;;;44.30;15.00;;;5.60;99.90;;;;;;5040581;28;20697;-64
2024/02/01 08:26:52;;;;;;;43.03;13.10;;;5.60;99.90;;;;;;5041402;28;20304;-64
2024/02/01 08:29:27;;;;;;;34.23;8.23;;;5.60;99.90;;;;;;5043520;28;20197;-63
2024/02/01 08:31:55;;;;;;;29.33;7.40;;;5.60;99.90;;;;;;5042817;28;20235;-64
2024/02/01 08:34:24;;;;;;;24.03;6.77;;;5.70;99.90;;;;;;5043499;28;20220;-64
2024/02/01 08:36:54;;;;;;;19.80;5.40;;;5.70;99.90;;;;;;5042721;28;20231;-64
2024/02/01 08:39:23;;;;;;;15.13;5.13;;;5.80;99.90;;;;;;5048634;28;20556;-64
2024/02/01 08:41:51;;;;;;;26.33;4.87;;;5.80;99.90;;;;;;5043229;28;20224;-64
2024/02/01 08:44:20;;;;;;;22.60;5.67;;;5.90;99.90;;;;;;5042247;28;20648;-64
2024/02/01 08:46:51;;;;;;;32.13;7.70;;;6.00;99.90;;;;;;5045510;28;20200;-64
2024/02/01 08:49:20;;;;;;;36.83;9.40;;;6.10;99.90;;;;;;5041712;28;20213;-64
2024/02/01 08:51:48;;;;;;;32.30;9.30;;;6.10;99.90;;;;;;5044753;28;20220;-64
2024/02/01 08:54:18;;;;;;;18.00;5.90;;;6.20;99.90;;;;;;5044291;28;20437;-64
2024/02/01 08:56:47;;;;;;;20.63;5.10;;;6.30;99.90;;;;;;5047946;28;20232;-63
2024/02/01 08:59:22;;;;;;;23.23;5.00;;;6.40;99.90;;;;;;5045203;28;20205;-64
2024/02/01 09:01:52;;;;;;;18.10;5.30;;;6.50;99.90;;;;;;5045264;28;20218;-64
2024/02/01 09:04:22;;;;;;;24.37;4.67;;;6.60;99.90;;;;;;5044238;28;20307;-64
2024/02/01 09:06:54;;;;;;;25.63;5.83;;;6.70;99.90;;;;;;5044495;28;20218;-64
2024/02/01 09:09:31;;;;;;;25.20;5.43;;;6.80;99.90;;;;;;5042204;28;20299;-64
2024/02/01 09:11:59;;;;;;;22.60;5.97;;;6.90;99.90;;;;;;5045170;28;20220;-64
2024/02/01 09:14:29;;;;;;;18.37;6.00;;;7.00;99.90;;;;;;5042055;28;20225;-64
2024/02/01 09:16:57;;;;;;;28.13;6.43;;;7.10;99.90;;;;;;5044520;28;20213;-64
2024/02/01 09:19:25;;;;;;;24.00;5.60;;;7.20;99.90;;;;;;5046875;28;20224;-64
2024/02/01 09:21:54;;;;;;;17.07;5.57;;;7.30;99.90;;;;;;5042543;28;20703;-64
2024/02/01 09:24:22;;;;;;;18.70;5.60;;;7.40;99.90;;;;;;5044266;28;20307;-64
2024/02/01 09:26:53;;;;;;;22.67;5.10;;;7.50;99.90;;;;;;5044610;28;20247;-64
2024/02/01 09:29:22;;;;;;;25.07;5.53;;;7.60;99.90;;;;;;5042677;28;20189;-64
2024/02/01 09:31:50;;;;;;;17.10;4.83;;;7.70;99.90;;;;;;5042580;28;20799;-64
2024/02/01 09:34:19;;;;;;;18.87;5.37;;;7.80;99.90;;;;;;5041881;28;20231;-64
2024/02/01 09:36:50;;;;;;;18.40;4.37;;;7.90;99.90;;;;;;5043450;28;20651;-64
2024/02/01 09:39:19;;;;;;;22.27;4.90;;;8.00;99.90;;;;;;5043618;28;20561;-64
2024/02/01 09:41:52;;;;;;;19.83;4.37;;;8.20;99.90;;;;;;5042603;28;20590;-64
2024/02/01 09:44:22;;;;;;;17.77;3.93;;;8.30;99.90;;;;;;5044840;28;20207;-64
2024/02/01 09:46:51;;;;;;;27.40;4.50;;;8.50;99.90;;;;;;5046067;28;20193;-64
2024/02/01 09:49:19;;;;;;;20.03;5.00;;;8.60;99.90;;;;;;5042365;28;20702;-64
2024/02/01 09:51:59;;;;;;;21.60;5.10;;;8.70;99.90;;;;;;5045417;28;20220;-64
2024/02/01 09:54:27;;;;;;;18.83;4.20;;;8.80;99.90;;;;;;5042660;28;20696;-64
2024/02/01 09:56:57;;;;;;;18.53;4.27;;;8.90;99.90;;;;;;5042813;28;20224;-64
2024/02/01 09:59:27;;;;;;;16.47;3.87;;;9.10;99.90;;;;;;5044952;28;20626;-64
2024/02/01 10:01:55;;;;;;;17.53;4.50;;;9.30;99.90;;;;;;5042306;28;20567;-64
2024/02/01 10:04:24;;;;;;;27.63;3.63;;;9.30;99.90;;;;;;5040503;28;20216;-64
2024/02/01 10:06:53;;;;;;;18.40;4.40;;;9.40;99.90;;;;;;5038968;28;20220;-64
2024/02/01 10:09:22;;;;;;;22.17;4.20;;;9.50;99.90;;;;;;5040580;28;20228;-64
2024/02/01 10:11:51;;;;;;;16.43;3.77;;;9.70;99.90;;;;;;5041174;28;20248;-64
2024/02/01 10:14:23;;;;;;;18.33;4.23;;;9.90;99.90;;;;;;5041377;28;20280;-64
2024/02/01 10:16:52;;;;;;;14.40;3.50;;;10.10;99.90;;;;;;5043460;28;20215;-64
2024/02/01 10:19:21;;;;;;;20.13;3.83;;;10.30;99.90;;;;;;5039702;28;20217;-64
2024/02/01 10:21:49;;;;;;;12.43;3.73;;;10.40;99.90;;;;;;5043143;28;20216;-64
2024/02/01 10:24:26;;;;;;;24.40;4.20;;;10.60;99.90;;;;;;5039203;28;20307;-64
2024/02/01 10:27:04;;;;;;;19.47;3.83;;;10.70;99.90;;;;;;5043150;28;20307;-64
2024/02/01 10:29:33;;;;;;;25.90;3.97;;;10.70;99.90;;;;;;5039510;28;20220;-64
2024/02/01 10:32:08;;;;;;;17.60;3.80;;;10.70;99.90;;;;;;5044366;28;20233;-64
2024/02/01 10:34:37;;;;;;;17.67;4.07;;;10.70;99.90;;;;;;5045015;28;20718;-64
2024/02/01 10:37:09;;;;;;;22.37;4.10;;;10.70;99.90;;;;;;5042521;28;20275;-64
2024/02/01 10:39:42;;;;;;;15.43;3.80;;;10.80;99.90;;;;;;5041268;28;20225;-64
2024/02/01 10:42:16;;;;;;;21.50;3.97;;;11.00;99.90;;;;;;5043060;28;20228;-64
2024/02/01 10:44:46;;;;;;;13.43;3.57;;;11.00;55.50;;;;;;5043697;28;20256;-64
2024/02/01 10:47:17;;;;;;;17.20;3.77;;;11.10;1.00;;;;;;5040662;28;20590;-64
2024/02/01 10:49:52;;;;;;;16.07;3.63;;;11.20;1.00;;;;;;5042804;28;20193;-64
2024/02/01 10:52:22;;;;;;;18.60;4.00;;;11.20;1.00;;;;;;5042022;28;20216;-64
2024/02/01 10:54:50;;;;;;;10.20;3.27;;;11.40;1.00;;;;;;5043583;28;20786;-64
2024/02/01 10:57:19;;;;;;;21.53;4.20;;;11.40;1.00;;;;;;5043168;28;20307;-65
2024/02/01 10:59:50;;;;;;;19.00;3.57;;;11.40;1.00;;;;;;5043174;28;20719;-64
2024/02/01 11:02:20;;;;;;;12.27;3.23;;;11.40;1.00;;;;;;5040903;28;20284;-64
2024/02/01 11:04:49;;;;;;;17.07;3.37;;;11.60;1.00;;;;;;5043832;28;20288;-65
2024/02/01 11:07:24;;;;;;;15.90;3.70;;;11.70;1.00;;;;;;5039101;28;20222;-64
2024/02/01 11:09:53;;;;;;;18.77;3.67;;;11.90;1.00;;;;;;5045841;28;20256;-65
2024/02/01 11:12:24;;;;;;;18.07;3.40;;;11.90;1.00;;;;;;5042034;28;20560;-65
2024/02/01 11:14:53;;;;;;;13.40;3.10;;;12.00;1.00;;;;;;5040604;28;20229;-65
2024/02/01 11:17:25;;;;;;;16.40;3.77;;;12.00;1.00;;;;;;5042469;28;20232;-64
2024/02/01 11:19:56;;;;;;;18.33;3.73;;;12.10;1.00;;;;;;5043485;28;20536;-64
2024/02/01 11:22:29;;;;;;;13.80;3.33;;;12.10;1.00;;;;;;5038967;28;20221;-65
2024/02/01 11:25:04;;;;;;;15.47;4.07;;;12.20;1.00;;;;;;5039149;28;20580;-65
2024/02/01 11:27:36;;;;;;;17.90;3.47;;;12.20;1.00;;;;;;5040583;28;20688;-65
2024/02/01 11:30:19;;;;;;;14.70;3.67;;;12.40;1.00;;;;;;5034415;28;20226;-65
2024/02/01 11:32:51;;;;;;;17.40;3.73;;;12.50;99.90;;;;;;5044312;28;20224;-64
2024/02/01 11:35:22;;;;;;;16.13;3.70;;;12.60;1.00;;;;;;5039600;28;20572;-65
2024/02/01 11:38:01;;;;;;;19.20;3.90;;;12.80;99.90;;;;;;5042603;28;20242;-65
2024/02/01 11:40:30;;;;;;;13.93;3.93;;;12.80;1.00;;;;;;5042148;28;20217;-65
2024/02/01 11:43:00;;;;;;;18.20;3.87;;;12.90;1.00;;;;;;5042074;28;20723;-64
2024/02/01 11:45:29;;;;;;;18.60;3.60;;;12.80;99.90;;;;;;5040449;28;20223;-65
2024/02/01 11:47:59;;;;;;;15.97;3.53;;;12.80;99.90;;;;;;5040666;28;20225;-65
2024/02/01 11:50:27;;;;;;;15.50;3.80;;;12.90;1.00;;;;;;5040602;28;20190;-65
2024/02/01 11:53:00;;;;;;;16.00;3.83;;;12.90;1.00;;;;;;5043554;28;20191;-65
2024/02/01 11:55:29;;;;;;;11.53;3.33;;;13.00;1.00;;;;;;5040992;28;20255;-65
2024/02/01 11:58:00;;;;;;;13.07;3.37;;;13.00;1.00;;;;;;5041118;28;20221;-65
2024/02/01 12:00:30;;;;;;;17.90;3.70;;;13.10;1.00;;;;;;5040905;28;20222;-65
2024/02/01 12:03:20;;;;;;;18.03;3.53;;;13.10;99.90;;;;;;5041302;28;20222;-65
2024/02/01 12:05:50;;;;;;;16.10;3.83;;;13.30;99.90;;;;;;5047064;28;20261;-64
2024/02/01 12:08:20;;;;;;;15.77;3.20;;;13.30;99.90;;;;;;5044855;28;20585;-64
2024/02/01 12:10:49;;;;;;;15.13;3.43;;;13.30;1.00;;;;;;5044279;28;20764;-64
2024/02/01 12:13:18;;;;;;;12.83;3.50;;;13.20;99.90;;;;;;5042114;28;20227;-64
2024/02/01 12:15:52;;;;;;;12.00;3.37;;;13.10;1.00;;;;;;5044037;28;20223;-65
2024/02/01 12:18:22;;;;;;;11.13;3.27;;;12.90;99.90;;;;;;5041954;28;20229;-64
2024/02/01 12:20:52;;;;;;;14.93;4.07;;;12.90;1.00;;;;;;5041404;28;20701;-64
2024/02/01 12:23:20;;;;;;;12.90;3.40;;;12.90;99.90;;;;;;5042342;28;20216;-65
2024/02/01 12:25:50;;;;;;;9.53;3.13;;;12.90;99.90;;;;;;5043239;28;20672;-65
2024/02/01 12:28:19;;;;;;;14.87;3.20;;;12.90;1.00;;;;;;5044177;28;20216;-64
2024/02/01 12:30:48;;;;;;;12.63;3.23;;;13.00;3.60;;;;;;5042621;28;20642;-65
2024/02/01 12:33:16;;;;;;;13.30;3.60;;;13.10;99.90;;;;;;5043237;28;20252;-64
2024/02/01 12:35:46;;;;;;;12.63;3.13;;;13.10;1.00;;;;;;5039693;28;20280;-65
2024/02/01 12:38:16;;;;;;;12.40;3.13;;;13.00;1.00;;;;;;5043172;28;20563;-64
2024/02/01 12:40:45;;;;;;;14.63;3.70;;;13.10;99.90;;;;;;5045034;28;20296;-64
2024/02/01 12:43:14;;;;;;;14.50;3.37;;;13.10;99.90;;;;;;5044100;28;20275;-64
2024/02/01 12:45:46;;;;;;;16.17;3.30;;;13.20;99.90;;;;;;5044812;28;20258;-64
2024/02/01 12:48:16;;;;;;;15.07;3.20;;;13.20;1.00;;;;;;5042614;28;20263;-65
2024/02/01 12:50:47;;;;;;;19.70;4.00;;;13.20;53.30;;;;;;5043437;28;20228;-64
2024/02/01 12:53:16;;;;;;;16.93;3.37;;;13.30;1.00;;;;;;5040081;28;20210;-64
2024/02/01 12:55:44;;;;;;;16.00;3.57;;;13.20;1.00;;;;;;5045840;28;20219;-64
2024/02/01 12:58:17;;;;;;;15.00;3.33;;;13.20;1.00;;;;;;5040642;28;20224;-64
2024/02/01 13:00:47;;;;;;;11.07;3.37;;;13.30;1.00;;;;;;5042992;28;20704;-64
2024/02/01 13:03:16;;;;;;;11.73;2.83;;;13.40;1.00;;;;;;5037222;28;20222;-64
2024/02/01 13:05:45;;;;;;;17.17;3.60;;;13.40;1.00;;;;;;5044542;28;20232;-64
2024/02/01 13:08:15;;;;;;;8.97;3.00;;;13.40;99.90;;;;;;5042712;28;20202;-64
2024/02/01 13:10:49;;;;;;;15.47;3.70;;;13.40;1.00;;;;;;5037642;28;20197;-64
2024/02/01 13:13:17;;;;;;;13.67;3.53;;;13.60;99.90;;;;;;5039782;28;20219;-64
2024/02/01 13:15:47;;;;;;;10.30;3.00;;;13.70;99.90;;;;;;5044245;28;20412;-64
2024/02/01 13:18:15;;;;;;;16.63;3.47;;;13.70;99.90;;;;;;5042931;28;20223;-64
2024/02/01 13:20:44;;;;;;;16.87;3.13;;;13.50;1.00;;;;;;5039047;28;20236;-64
2024/02/01 13:23:12;;;;;;;11.93;3.00;;;13.30;1.00;;;;;;5044690;28;20207;-64
2024/02/01 13:25:42;;;;;;;14.67;3.70;;;13.10;1.00;;;;;;5044791;28;20569;-64
2024/02/01 13:28:12;;;;;;;14.67;3.27;;;13.10;1.00;;;;;;5045566;28;20312;-64
2024/02/01 13:30:43;;;;;;;15.63;3.30;;;13.10;1.00;;;;;;5044938;28;20312;-64
2024/02/01 13:33:12;;;;;;;16.87;3.33;;;13.20;1.00;;;;;;5043244;28;20610;-64
2024/02/01 13:35:41;;;;;;;15.67;3.43;;;13.30;1.00;;;;;;5044629;28;20288;-64
2024/02/01 13:38:11;;;;;;;10.50;3.10;;;13.30;1.00;;;;;;5044481;28;20194;-63